Latest Weather Observations for Mildura

IDV60801

Issued at 1:02 pm EST Saturday 30 April 2016 (issued every 30 minutes, with the page automatically refreshed every 10 minutes)

About weather observations | Map of weather stations | Latest weather observations for VIC | Other Formats
Station Details ID: 076031 Name: MILDURA AIRPORT Lat: -34.24 Lon: 142.09 Height: 50.0 m
Data from the previous 72 hours. | See also: Recent months at Mildura
Date/Time
EST
Temp
°C
App
Temp
°C
Dew
Point
Rel
Hum
%
Delta-T
°C
Wind Press
QNH
hPa
Press
MSL
hPa
Rain
since 9 am
mm
Dir
 
Spd
km/h
Gust
km/h
Spd
kts
Gust
kts
30/01:00pm 26.1 23.2 13.9 47 7.2 N 22 32 12 17 1012.8 1012.7 0.0
30/12:30pm 25.3 23.5 14.4 50 6.5 N 17 28 9 15 1013.5 1013.5 0.0
30/12:00pm 24.1 22.3 14.5 55 5.7 NNW 17 22 9 12 1014.1 1014.1 0.0
30/11:30am 23.2 21.1 14.7 58 5.0 NNW 19 24 10 13 1014.8 1014.8 0.0
30/11:00am 22.5 21.8 15.4 64 4.2 NNW 13 17 7 9 1015.2 1015.2 0.0
30/10:30am 21.2 20.8 15.3 69 3.5 NW 11 20 6 11 1015.3 1015.3 0.0
30/10:00am 20.6 20.0 15.6 73 3.0 NNW 13 17 7 9 1015.5 1015.5 0.0
30/09:30am 19.6 19.0 15.7 78 2.3 NNW 13 19 7 10 1015.7 1015.7 0.0
30/09:00am 18.4 18.0 15.3 82 1.8 NNW 11 17 6 9 1015.7 1015.7 2.2
30/08:30am 17.4 16.8 15.6 89 1.1 N 13 17 7 9 1015.5 1015.5 2.2
30/08:00am 15.6 15.1 14.8 95 0.5 NNE 11 15 6 8 1015.5 1015.5 2.0
30/07:30am 15.3 14.7 14.7 96 0.3 NNE 11 13 6 7 1015.2 1015.2 2.0
30/07:00am 15.4 15.2 14.6 95 0.5 N 9 13 5 7 1015.0 1015.0 2.0
30/06:30am 15.6 15.0 14.6 94 0.6 N 11 15 6 8 1014.7 1014.7 2.0
30/06:00am 15.9 15.5 15.1 95 0.5 N 11 17 6 9 1014.6 1014.6 2.0
30/05:30am 15.7 15.3 15.1 96 0.3 N 11 15 6 8 1014.4 1014.4 2.0
30/05:00am 16.2 15.6 15.7 97 0.3 N 13 15 7 8 1014.1 1014.1 2.0
30/04:30am 15.5 15.2 15.5 100 0.0 N 11 15 6 8 1013.9 1013.9 2.0
30/04:00am 14.7 14.1 14.7 100 0.0 NNE 11 13 6 7 1013.7 1013.7 2.0
30/03:30am 14.7 14.5 14.7 100 0.0 N 9 11 5 6 1013.7 1013.7 2.0
30/03:00am 15.4 15.1 15.4 100 0.0 NNE 11 13 6 7 1013.6 1013.6 2.0
30/02:30am 15.3 14.9 15.3 100 0.0 NNE 11 13 6 7 1013.6 1013.6 2.0
30/02:00am 15.5 16.6 15.5 100 0.0 NNE 4 9 2 5 1013.5 1013.5 2.0
30/01:30am 15.4 15.1 15.4 100 0.0 NNE 11 11 6 6 1013.7 1013.7 2.0
30/01:00am 16.0 15.9 16.0 100 0.0 N 11 13 6 7 1013.9 1013.9 2.0
30/12:30am 15.9 15.3 15.7 99 0.1 NNE 13 13 7 7 1013.8 1013.8 2.0
30/12:00am 16.5 16.5 16.2 98 0.2 NNE 11 13 6 7 1014.1 1014.1 2.0
 
Date/Time
EST
Temp
°C
App
Temp
°C
Dew
Point
Rel
Hum
%
Delta-T
°C
Wind Press
QNH
hPa
Press
MSL
hPa
Rain
since 9 am
mm
Dir
 
Spd
km/h
Gust
km/h
Spd
kts
Gust
kts
29/11:30pm 16.9 17.0 16.4 97 0.3 NNE 11 13 6 7 1014.2 1014.2 2.0
29/11:00pm 17.1 16.8 16.5 96 0.4 NNE 13 15 7 8 1014.4 1014.4 2.0
29/10:30pm 17.6 17.4 16.8 95 0.5 NNE 13 17 7 9 1014.7 1014.7 2.0
29/10:00pm 18.2 17.3 16.9 92 0.8 NNE 17 20 9 11 1014.7 1014.7 2.0
29/09:30pm 18.4 17.6 17.1 92 0.8 NNE 17 20 9 11 1014.7 1014.7 2.0
29/09:00pm 18.3 17.8 17.0 92 0.8 NNE 15 19 8 10 1014.6 1014.6 2.0
29/08:30pm 18.3 18.1 16.8 91 0.9 NNE 13 17 7 9 1014.6 1014.6 2.0
29/08:00pm 18.3 18.4 16.6 90 1.0 NNE 11 13 6 7 1014.4 1014.4 2.0
29/07:30pm 18.6 18.8 16.8 89 1.1 NNE 11 13 6 7 1014.4 1014.4 2.0
29/07:00pm 19.0 18.8 16.8 87 1.3 N 13 15 7 8 1014.4 1014.4 2.0
29/06:30pm 18.9 18.6 16.5 86 1.4 NNE 13 17 7 9 1014.0 1014.0 2.0
29/06:00pm 19.9 19.3 16.7 82 1.9 N 15 20 8 11 1013.8 1013.8 2.0
29/05:30pm 20.4 17.9 16.2 77 2.5 N 24 30 13 16 1013.5 1013.5 2.0
29/05:00pm 21.0 19.7 16.8 77 2.6 NNE 19 26 10 14 1013.5 1013.5 2.0
29/04:30pm 20.8 19.6 17.0 79 2.3 NNE 19 22 10 12 1013.4 1013.4 2.0
29/04:00pm 20.9 18.1 15.4 71 3.3 NNE 24 30 13 16 1013.2 1013.1 2.0
29/03:30pm 21.0 19.4 15.1 69 3.5 NE 17 22 9 12 1013.2 1013.1 2.0
29/03:00pm 20.1 17.8 14.2 69 3.4 NNE 19 24 10 13 1013.3 1013.2 2.0
29/02:30pm 19.8 19.2 15.7 77 2.4 NNE 13 17 7 9 1013.4 1013.4 2.0
29/02:00pm 19.2 17.9 15.7 80 2.1 NNE 17 20 9 11 1013.4 1013.4 2.0
29/01:30pm 18.8 19.2 16.4 86 1.4 NE 9 13 5 7 1013.5 1013.5 2.0
29/01:00pm 18.6 19.2 15.8 84 1.7 ESE 7 13 4 7 1013.8 1013.8 2.0
29/12:30pm 18.2 17.0 16.0 87 1.3 ENE 17 26 9 14 1013.7 1013.7 2.0
29/12:00pm 18.6 19.3 17.1 91 0.9 E 9 13 5 7 1015.5 1015.5 1.8
29/11:30am 18.6 20.7 17.1 91 0.9 SE 2 9 1 5 1016.4 1016.4 1.2
29/11:00am 18.8 20.7 16.6 87 1.3 SSE 2 6 1 3 1016.8 1016.8 0.6
29/10:30am 19.0 20.9 16.6 86 1.4 SE 2 6 1 3 1016.6 1016.6 0.2
29/10:00am 19.1 19.8 16.1 83 1.8 E 7 13 4 7 1015.9 1015.9 0.2
29/09:30am 18.9 19.2 16.1 84 1.7 SE 9 11 5 6 1015.7 1015.7 0.2
29/09:00am 18.8 19.2 16.2 85 1.6 SE 9 11 5 6 1016.0 1016.0 0.2
29/08:30am 18.6 20.8 16.4 87 1.3 CALM 0 0 0 0 1015.8 1015.8 0.2
29/08:00am 18.5 19.1 15.4 82 1.8 NNE 6 11 3 6 1015.4 1015.4 0.2
29/07:30am 18.9 19.7 14.8 77 2.4 NNW 4 9 2 5 1014.9 1014.9 0.0
29/07:00am 19.2 16.2 14.7 75 2.6 NE 24 33 13 18 1014.4 1014.4 0.0
29/06:30am 19.5 15.8 13.9 70 3.2 NNE 26 32 14 17 1013.7 1013.7 0.0
29/06:00am 21.3 18.3 11.9 55 5.3 N 19 28 10 15 1014.0 1014.0 0.0
29/05:30am 21.1 20.2 11.2 53 5.5 NW 7 11 4 6 1014.0 1014.0 0.0
29/05:00am 20.3 19.6 11.5 57 4.9 N 6 15 3 8 1013.7 1013.7 0.0
29/04:30am 20.1 18.9 11.6 58 4.7 N 9 11 5 6 1013.9 1013.9 0.0
29/04:00am 21.2 18.4 8.5 44 6.7 NNE 13 15 7 8 1013.6 1013.6 0.0
29/03:30am 21.2 18.4 8.5 44 6.7 NNE 13 15 7 8 1013.4 1013.4 0.0
29/03:00am 20.9 17.3 8.2 44 6.6 NNE 17 19 9 10 1013.4 1013.4 0.0
29/02:30am 20.6 17.0 8.3 45 6.4 NNE 17 19 9 10 1013.6 1013.6 0.0
29/02:00am 20.6 16.9 7.9 44 6.6 NNE 17 19 9 10 1013.6 1013.6 0.0
29/01:30am 21.1 17.4 8.0 43 6.8 NE 17 20 9 11 1013.7 1013.7 0.0
29/01:00am 20.3 17.8 8.0 45 6.4 NE 11 13 6 7 1013.8 1013.8 0.0
29/12:30am 19.3 16.8 6.4 43 6.4 ENE 9 11 5 6 1014.3 1014.3 0.0
29/12:00am 19.2 16.6 6.0 42 6.5 ENE 9 9 5 5 1014.9 1014.9 0.0
 
Date/Time
EST
Temp
°C
App
Temp
°C
Dew
Point
Rel
Hum
%
Delta-T
°C
Wind Press
QNH
hPa
Press
MSL
hPa
Rain
since 9 am
mm
Dir
 
Spd
km/h
Gust
km/h
Spd
kts
Gust
kts
28/11:30pm 19.5 17.2 5.6 40 6.8 ENE 7 9 4 5 1015.3 1015.3 0.0
28/11:00pm 19.0 16.6 5.1 40 6.8 E 7 9 4 5 1015.6 1015.6 0.0
28/10:30pm 19.5 17.2 5.6 40 6.8 NE 7 7 4 4 1016.1 1016.1 0.0
28/10:00pm 19.4 17.1 5.5 40 6.8 ENE 7 9 4 5 1016.1 1016.1 0.0
28/09:30pm 19.5 17.5 6.3 42 6.6 E 6 7 3 4 1016.1 1016.1 0.0
28/09:00pm 20.2 18.3 6.5 41 6.9 E 6 7 3 4 1015.9 1015.9 0.0
28/08:30pm 20.9 18.9 6.1 38 7.4 E 6 7 3 4 1016.0 1016.0 0.0
28/08:00pm 21.5 19.2 5.8 36 7.9 ENE 7 9 4 5 1016.2 1016.2 0.0
28/07:30pm 21.9 19.7 5.3 34 8.3 E 6 7 3 4 1016.1 1016.1 0.0
28/07:00pm 22.2 21.2 5.6 34 8.3 CALM 0 0 0 0 1016.1 1016.1 0.0
28/06:30pm 23.0 21.9 5.0 31 9.0 CALM 0 0 0 0 1016.0 1016.0 0.0
28/06:00pm 23.6 22.3 4.0 28 9.6 CALM 0 0 0 0 1015.9 1015.9 0.0
28/05:30pm 25.0 22.6 4.2 26 10.4 N 6 7 3 4 1015.9 1015.9 0.0
28/05:00pm 26.0 23.9 3.9 24 11.0 NW 4 6 2 3 1015.7 1015.7 0.0
28/04:30pm 26.7 23.5 3.2 22 11.6 NW 9 13 5 7 1016.0 1016.0 0.0
28/04:00pm 27.1 23.2 3.6 22 11.7 N 13 20 7 11 1016.1 1016.1 0.0
28/03:30pm 27.1 23.1 2.9 21 11.9 NNW 13 19 7 10 1016.3 1016.3 0.0
28/03:00pm 27.4 23.5 3.2 21 12.0 NNW 13 19 7 10 1016.1 1016.1 0.0
28/02:30pm 27.2 22.9 3.0 21 12.0 NNW 15 20 8 11 1016.2 1016.2 0.0
28/02:00pm 27.3 23.0 3.1 21 12.0 N 15 22 8 12 1016.5 1016.5 0.0
28/01:30pm 26.6 22.0 3.8 23 11.4 N 17 20 9 11 1016.8 1016.8 0.0
28/01:00pm 25.5 21.4 4.6 26 10.5 N 15 20 8 11 1017.2 1017.2 0.0
28/12:30pm 25.1 21.8 4.3 26 10.4 N 11 15 6 8 1017.5 1017.5 0.0
28/12:00pm 25.6 21.8 4.1 25 10.7 N 13 20 7 11 1017.9 1017.8 0.0
28/11:30am 24.6 20.9 4.4 27 10.1 NNW 13 19 7 10 1018.2 1018.1 0.0
28/11:00am 24.4 20.7 4.7 28 9.8 NW 13 19 7 10 1018.4 1018.3 0.0
28/10:30am 23.6 20.4 5.0 30 9.3 NNW 11 19 6 10 1018.5 1018.4 0.0
28/10:00am 22.6 19.9 5.5 33 8.6 NNW 9 17 5 9 1018.9 1018.8 0.0
28/09:30am 21.3 18.6 5.6 36 7.8 N 9 13 5 7 1018.7 1018.6 0.0
28/09:00am 20.0 17.2 5.3 38 7.2 NNE 9 13 5 7 1018.6 1018.5 0.0
28/08:30am 18.9 16.5 5.4 41 6.6 NNE 7 9 4 5 1018.4 1018.3 0.0
28/08:00am 16.9 14.1 5.2 46 5.6 NNE 9 11 5 6 1018.0 1017.9 0.0
28/07:30am 15.7 12.9 5.0 49 5.1 NNE 9 11 5 6 1017.5 1017.5 0.0
28/07:00am 15.9 13.4 4.9 48 5.2 NNE 7 9 4 5 1017.2 1017.2 0.0
28/06:30am 15.4 12.5 4.8 49 5.0 NNE 9 11 5 6 1017.1 1017.1 0.0
28/06:00am 15.9 12.9 4.3 46 5.4 NE 9 13 5 7 1017.0 1017.0 0.0
28/05:30am 16.6 13.7 4.6 45 5.7 NNE 9 15 5 8 1016.8 1016.8 0.0
28/05:00am 17.4 14.5 4.7 43 6.0 NNE 9 11 5 6 1016.6 1016.6 0.0
28/04:30am 18.4 14.7 4.6 40 6.6 NNE 13 15 7 8 1016.4 1016.4 0.0
28/04:00am 18.5 15.5 3.9 38 6.9 NNE 9 9 5 5 1016.5 1016.5 0.0
28/03:30am 19.0 16.0 4.0 37 7.1 N 9 11 5 6 1016.5 1016.5 0.0
28/03:00am 18.2 15.0 5.1 42 6.3 NNE 11 13 6 7 1016.5 1016.5 0.0
28/02:30am 18.7 15.4 4.5 39 6.8 N 11 13 6 7 1016.6 1016.6 0.0
28/02:00am 17.7 14.1 5.0 43 6.1 NNE 13 13 7 7 1016.5 1016.5 0.0
28/01:30am 19.3 15.6 4.6 38 7.1 NNE 13 17 7 9 1016.5 1016.5 0.0
28/01:00am 18.9 15.9 4.3 38 7.0 NNE 9 9 5 5 1016.5 1016.5 0.0
28/12:30am 19.0 16.0 4.0 37 7.1 NNE 9 11 5 6 1016.3 1016.3 0.0
28/12:00am 18.7 14.9 4.1 38 6.9 NNE 13 15 7 8 1016.3 1016.3 0.0
 
Date/Time
EST
Temp
°C
App
Temp
°C
Dew
Point
Rel
Hum
%
Delta-T
°C
Wind Press
QNH
hPa
Press
MSL
hPa
Rain
since 9 am
mm
Dir
 
Spd
km/h
Gust
km/h
Spd
kts
Gust
kts
27/11:30pm 18.6 15.3 4.4 39 6.8 NNE 11 13 6 7 1016.6 1016.6 0.0
27/11:00pm 19.2 15.9 4.6 38 7.0 NNE 11 13 6 7 1016.8 1016.8 0.0
27/10:30pm 19.3 16.3 4.3 37 7.2 NNE 9 11 5 6 1016.6 1016.6 0.0
27/10:00pm 19.6 16.1 3.3 34 7.7 NNE 11 15 6 8 1016.7 1016.7 0.0
27/09:30pm 18.3 14.0 3.4 37 7.0 NNE 15 15 8 8 1016.7 1016.7 0.0
27/09:00pm 19.3 15.4 3.5 35 7.4 NE 13 13 7 7 1016.7 1016.7 0.0
27/08:30pm 20.2 16.4 3.9 34 7.8 NNE 13 13 7 7 1016.7 1016.7 0.0
27/08:00pm 21.9 18.1 4.0 31 8.7 NNE 13 15 7 8 1016.5 1016.5 0.0
27/07:30pm 22.4 18.6 4.0 30 9.0 NE 13 17 7 9 1016.3 1016.3 0.0
27/07:00pm 21.3 17.9 4.0 32 8.4 NNE 11 13 6 7 1016.6 1016.6 0.0
27/06:30pm 21.7 18.4 4.3 32 8.5 NE 11 13 6 7 1016.3 1016.3 0.0
27/06:00pm 23.4 20.6 5.3 31 9.1 NNE 9 11 5 6 1016.2 1016.2 0.0
27/05:30pm 26.3 22.5 4.1 24 11.1 N 13 17 7 9 1016.2 1016.2 0.0
27/05:00pm 27.3 23.1 3.7 22 11.8 N 15 20 8 11 1016.2 1016.2 0.0
27/04:30pm 27.5 22.9 3.9 22 11.9 N 17 26 9 14 1016.1 1016.1 0.0
27/04:00pm 27.5 22.0 3.9 22 11.9 N 22 32 12 17 1016.2 1016.2 0.0
27/03:30pm 27.6 22.6 4.6 23 11.7 N 20 26 11 14 1016.3 1016.3 0.0
27/03:00pm 27.4 21.6 4.5 23 11.6 N 24 32 13 17 1016.1 1016.1 0.0
27/02:30pm 27.8 22.0 4.2 22 12.0 N 24 32 13 17 1016.0 1016.0 0.0
27/02:00pm 27.7 21.1 4.1 22 11.9 N 28 39 15 21 1016.3 1016.3 0.0
27/01:30pm 27.6 21.1 4.6 23 11.7 N 28 39 15 21 1016.6 1016.6 0.0

Other Formats:

Comma delimited format used in spreadsheet applications
http://www.bom.gov.au/fwo/IDV60801/IDV60801.94693.axf

JavaScript Object Notation format (JSON) in row-major order
http://www.bom.gov.au/fwo/IDV60801/IDV60801.94693.json